sensor_id;sensor_type;location;lat;lon;timestamp;temperature;humidity
36442;DHT22;64346;50.820;16.274;2023-02-01T00:00:40;4.00;99.90
36442;DHT22;64346;50.820;16.274;2023-02-01T00:03:27;3.90;99.90
36442;DHT22;64346;50.820;16.274;2023-02-01T00:05:57;3.90;99.90
36442;DHT22;64346;50.820;16.274;2023-02-01T00:08:27;3.80;99.90
36442;DHT22;64346;50.820;16.274;2023-02-01T00:11:05;3.80;99.90
36442;DHT22;64346;50.820;16.274;2023-02-01T00:13:37;3.90;99.90
36442;DHT22;64346;50.820;16.274;2023-02-01T00:16:05;3.90;99.90
36442;DHT22;64346;50.820;16.274;2023-02-01T00:18:36;3.90;99.90
36442;DHT22;64346;50.820;16.274;2023-02-01T00:21:07;3.90;99.90
36442;DHT22;64346;50.820;16.274;2023-02-01T00:23:37;3.80;99.90
36442;DHT22;64346;50.820;16.274;2023-02-01T00:26:10;3.70;99.90
36442;DHT22;64346;50.820;16.274;2023-02-01T00:28:42;3.70;99.90
36442;DHT22;64346;50.820;16.274;2023-02-01T00:31:09;3.60;99.90
36442;DHT22;64346;50.820;16.274;2023-02-01T00:33:36;3.60;99.90
36442;DHT22;64346;50.820;16.274;2023-02-01T00:36:06;3.60;99.90
36442;DHT22;64346;50.820;16.274;2023-02-01T00:38:36;3.50;99.90
36442;DHT22;64346;50.820;16.274;2023-02-01T00:41:15;3.50;99.90
36442;DHT22;64346;50.820;16.274;2023-02-01T00:43:44;3.40;99.90
36442;DHT22;64346;50.820;16.274;2023-02-01T00:46:12;3.40;99.90
36442;DHT22;64346;50.820;16.274;2023-02-01T00:48:40;3.40;99.90
36442;DHT22;64346;50.820;16.274;2023-02-01T00:51:13;3.40;99.90
36442;DHT22;64346;50.820;16.274;2023-02-01T00:53:43;3.40;99.90
36442;DHT22;64346;50.820;16.274;2023-02-01T00:56:11;3.50;99.90
36442;DHT22;64346;50.820;16.274;2023-02-01T00:58:41;3.50;99.90
36442;DHT22;64346;50.820;16.274;2023-02-01T01:03:44;3.50;99.90
36442;DHT22;64346;50.820;16.274;2023-02-01T01:06:16;3.50;99.90
36442;DHT22;64346;50.820;16.274;2023-02-01T01:08:43;3.50;99.90
36442;DHT22;64346;50.820;16.274;2023-02-01T01:11:31;3.60;99.90
36442;DHT22;64346;50.820;16.274;2023-02-01T01:13:59;3.70;99.90
36442;DHT22;64346;50.820;16.274;2023-02-01T01:16:28;3.70;99.90
36442;DHT22;64346;50.820;16.274;2023-02-01T01:19:01;3.80;99.90
36442;DHT22;64346;50.820;16.274;2023-02-01T01:21:29;3.90;99.90
36442;DHT22;64346;50.820;16.274;2023-02-01T01:23:59;3.90;99.90
36442;DHT22;64346;50.820;16.274;2023-02-01T01:26:28;3.90;99.90
36442;DHT22;64346;50.820;16.274;2023-02-01T01:28:57;4.00;99.90
36442;DHT22;64346;50.820;16.274;2023-02-01T01:31:24;4.00;99.90
36442;DHT22;64346;50.820;16.274;2023-02-01T01:33:54;4.10;99.90
36442;DHT22;64346;50.820;16.274;2023-02-01T01:36:22;4.00;99.90
36442;DHT22;64346;50.820;16.274;2023-02-01T01:38:50;4.10;99.90
36442;DHT22;64346;50.820;16.274;2023-02-01T01:41:24;4.10;99.90
36442;DHT22;64346;50.820;16.274;2023-02-01T01:43:58;4.10;99.90
36442;DHT22;64346;50.820;16.274;2023-02-01T01:46:37;4.10;99.90
36442;DHT22;64346;50.820;16.274;2023-02-01T01:49:23;4.10;99.90
36442;DHT22;64346;50.820;16.274;2023-02-01T01:51:55;4.10;99.90
36442;DHT22;64346;50.820;16.274;2023-02-01T01:54:31;4.10;99.90
36442;DHT22;64346;50.820;16.274;2023-02-01T01:57:06;4.10;99.90
36442;DHT22;64346;50.820;16.274;2023-02-01T01:59:40;4.10;99.90
36442;DHT22;64346;50.820;16.274;2023-02-01T02:02:10;4.00;99.90
36442;DHT22;64346;50.820;16.274;2023-02-01T02:04:38;4.00;99.90
36442;DHT22;64346;50.820;16.274;2023-02-01T02:07:13;3.90;99.90
36442;DHT22;64346;50.820;16.274;2023-02-01T02:09:41;3.80;99.90
36442;DHT22;64346;50.820;16.274;2023-02-01T02:12:20;3.80;99.90
36442;DHT22;64346;50.820;16.274;2023-02-01T02:14:48;3.80;99.90
36442;DHT22;64346;50.820;16.274;2023-02-01T02:17:44;3.70;99.90
36442;DHT22;64346;50.820;16.274;2023-02-01T02:31:33;3.60;99.90
36442;DHT22;64346;50.820;16.274;2023-02-01T02:39:53;3.60;99.90
36442;DHT22;64346;50.820;16.274;2023-02-01T02:42:39;3.60;99.90
36442;DHT22;64346;50.820;16.274;2023-02-01T02:45:09;3.60;99.90
36442;DHT22;64346;50.820;16.274;2023-02-01T02:52:59;3.80;99.90
36442;DHT22;64346;50.820;16.274;2023-02-01T02:55:28;3.90;99.90
36442;DHT22;64346;50.820;16.274;2023-02-01T02:57:58;3.90;99.90
36442;DHT22;64346;50.820;16.274;2023-02-01T03:00:32;3.90;99.90
36442;DHT22;64346;50.820;16.274;2023-02-01T03:03:01;4.00;99.90
36442;DHT22;64346;50.820;16.274;2023-02-01T03:05:39;4.00;99.90
36442;DHT22;64346;50.820;16.274;2023-02-01T03:08:21;4.10;99.90
36442;DHT22;64346;50.820;16.274;2023-02-01T03:11:04;4.10;99.90
36442;DHT22;64346;50.820;16.274;2023-02-01T03:18:52;4.10;99.90
36442;DHT22;64346;50.820;16.274;2023-02-01T03:21:28;4.10;99.90
36442;DHT22;64346;50.820;16.274;2023-02-01T03:24:01;4.10;99.90
36442;DHT22;64346;50.820;16.274;2023-02-01T03:26:31;4.10;99.90
36442;DHT22;64346;50.820;16.274;2023-02-01T03:29:07;4.20;99.90
36442;DHT22;64346;50.820;16.274;2023-02-01T03:31:35;4.20;99.90
36442;DHT22;64346;50.820;16.274;2023-02-01T03:34:03;4.20;99.90
36442;DHT22;64346;50.820;16.274;2023-02-01T03:36:56;4.30;99.90
36442;DHT22;64346;50.820;16.274;2023-02-01T03:39:43;4.20;99.90
36442;DHT22;64346;50.820;16.274;2023-02-01T03:42:28;4.30;99.90
36442;DHT22;64346;50.820;16.274;2023-02-01T03:48:07;4.30;99.90
36442;DHT22;64346;50.820;16.274;2023-02-01T03:50:37;4.30;99.90
36442;DHT22;64346;50.820;16.274;2023-02-01T03:53:12;4.30;99.90
36442;DHT22;64346;50.820;16.274;2023-02-01T03:55:41;4.30;99.90
36442;DHT22;64346;50.820;16.274;2023-02-01T03:58:18;4.30;99.90
36442;DHT22;64346;50.820;16.274;2023-02-01T04:03:28;4.30;99.90
36442;DHT22;64346;50.820;16.274;2023-02-01T04:05:56;4.30;99.90
36442;DHT22;64346;50.820;16.274;2023-02-01T04:08:24;4.30;99.90
36442;DHT22;64346;50.820;16.274;2023-02-01T04:10:53;4.30;99.90
36442;DHT22;64346;50.820;16.274;2023-02-01T04:13:23;4.30;99.90
36442;DHT22;64346;50.820;16.274;2023-02-01T04:15:50;4.30;99.90
36442;DHT22;64346;50.820;16.274;2023-02-01T04:18:22;4.30;99.90
36442;DHT22;64346;50.820;16.274;2023-02-01T04:20:52;4.30;99.90
36442;DHT22;64346;50.820;16.274;2023-02-01T04:23:19;4.30;99.90
36442;DHT22;64346;50.820;16.274;2023-02-01T04:25:46;4.40;99.90
36442;DHT22;64346;50.820;16.274;2023-02-01T04:28:13;4.40;99.90
36442;DHT22;64346;50.820;16.274;2023-02-01T04:30:41;4.40;99.90
36442;DHT22;64346;50.820;16.274;2023-02-01T04:33:08;4.30;99.90
36442;DHT22;64346;50.820;16.274;2023-02-01T04:35:38;4.30;99.90
36442;DHT22;64346;50.820;16.274;2023-02-01T04:38:05;4.30;99.90
36442;DHT22;64346;50.820;16.274;2023-02-01T04:40:33;4.30;99.90
36442;DHT22;64346;50.820;16.274;2023-02-01T04:43:03;4.20;99.90
36442;DHT22;64346;50.820;16.274;2023-02-01T04:45:31;4.20;99.90
36442;DHT22;64346;50.820;16.274;2023-02-01T04:47:58;4.20;99.90
36442;DHT22;64346;50.820;16.274;2023-02-01T04:50:25;4.20;99.90
36442;DHT22;64346;50.820;16.274;2023-02-01T04:52:54;4.10;99.90
36442;DHT22;64346;50.820;16.274;2023-02-01T04:55:24;4.10;99.90
36442;DHT22;64346;50.820;16.274;2023-02-01T04:57:54;4.10;99.90
36442;DHT22;64346;50.820;16.274;2023-02-01T05:00:21;4.00;99.90
36442;DHT22;64346;50.820;16.274;2023-02-01T05:02:51;4.00;99.90
36442;DHT22;64346;50.820;16.274;2023-02-01T05:05:19;4.00;99.90
36442;DHT22;64346;50.820;16.274;2023-02-01T05:07:46;4.00;99.90
36442;DHT22;64346;50.820;16.274;2023-02-01T05:10:13;4.00;99.90
36442;DHT22;64346;50.820;16.274;2023-02-01T05:12:43;4.00;99.90
36442;DHT22;64346;50.820;16.274;2023-02-01T05:15:13;4.00;99.90
36442;DHT22;64346;50.820;16.274;2023-02-01T05:17:43;4.10;99.90
36442;DHT22;64346;50.820;16.274;2023-02-01T05:20:10;4.00;99.90
36442;DHT22;64346;50.820;16.274;2023-02-01T05:22:37;4.00;99.90
36442;DHT22;64346;50.820;16.274;2023-02-01T05:25:05;4.00;99.90
36442;DHT22;64346;50.820;16.274;2023-02-01T05:27:34;4.00;99.90
36442;DHT22;64346;50.820;16.274;2023-02-01T05:30:05;4.00;99.90
36442;DHT22;64346;50.820;16.274;2023-02-01T05:32:33;4.00;99.90
36442;DHT22;64346;50.820;16.274;2023-02-01T05:35:03;4.00;99.90
36442;DHT22;64346;50.820;16.274;2023-02-01T05:37:30;4.00;99.90
36442;DHT22;64346;50.820;16.274;2023-02-01T05:39:58;4.10;99.90
36442;DHT22;64346;50.820;16.274;2023-02-01T05:42:25;4.00;99.90
36442;DHT22;64346;50.820;16.274;2023-02-01T05:44:52;4.00;99.90
36442;DHT22;64346;50.820;16.274;2023-02-01T05:47:19;3.90;99.90
36442;DHT22;64346;50.820;16.274;2023-02-01T05:49:46;4.00;99.90
36442;DHT22;64346;50.820;16.274;2023-02-01T05:52:14;3.90;99.90
36442;DHT22;64346;50.820;16.274;2023-02-01T05:54:41;4.00;99.90
36442;DHT22;64346;50.820;16.274;2023-02-01T05:57:08;3.90;99.90
36442;DHT22;64346;50.820;16.274;2023-02-01T05:59:38;3.90;99.90
36442;DHT22;64346;50.820;16.274;2023-02-01T06:02:08;3.90;99.90
36442;DHT22;64346;50.820;16.274;2023-02-01T06:04:35;3.90;99.90
36442;DHT22;64346;50.820;16.274;2023-02-01T06:07:05;3.90;99.90
36442;DHT22;64346;50.820;16.274;2023-02-01T06:09:32;4.00;99.90
36442;DHT22;64346;50.820;16.274;2023-02-01T06:12:02;4.00;99.90
36442;DHT22;64346;50.820;16.274;2023-02-01T06:14:30;4.00;99.90
36442;DHT22;64346;50.820;16.274;2023-02-01T06:16:57;4.10;99.90
36442;DHT22;64346;50.820;16.274;2023-02-01T06:19:24;4.10;99.90
36442;DHT22;64346;50.820;16.274;2023-02-01T06:21:51;4.20;99.90
36442;DHT22;64346;50.820;16.274;2023-02-01T06:24:19;4.20;99.90
36442;DHT22;64346;50.820;16.274;2023-02-01T06:26:46;4.20;99.90
36442;DHT22;64346;50.820;16.274;2023-02-01T06:29:14;4.30;99.90
36442;DHT22;64346;50.820;16.274;2023-02-01T06:31:43;4.30;99.90
36442;DHT22;64346;50.820;16.274;2023-02-01T06:34:11;4.30;99.90
36442;DHT22;64346;50.820;16.274;2023-02-01T06:36:40;4.30;99.90
36442;DHT22;64346;50.820;16.274;2023-02-01T06:39:08;4.30;99.90
36442;DHT22;64346;50.820;16.274;2023-02-01T06:41:37;4.30;99.90
36442;DHT22;64346;50.820;16.274;2023-02-01T06:44:05;4.40;99.90
36442;DHT22;64346;50.820;16.274;2023-02-01T06:46:32;4.40;99.90
36442;DHT22;64346;50.820;16.274;2023-02-01T06:48:59;4.40;99.90
36442;DHT22;64346;50.820;16.274;2023-02-01T06:51:27;4.40;99.90
36442;DHT22;64346;50.820;16.274;2023-02-01T06:53:55;4.40;99.90
36442;DHT22;64346;50.820;16.274;2023-02-01T06:56:23;4.30;99.90
36442;DHT22;64346;50.820;16.274;2023-02-01T06:58:55;4.30;99.90
36442;DHT22;64346;50.820;16.274;2023-02-01T07:01:22;4.20;99.90
36442;DHT22;64346;50.820;16.274;2023-02-01T07:03:52;4.30;99.90
36442;DHT22;64346;50.820;16.274;2023-02-01T07:06:20;4.30;99.90
36442;DHT22;64346;50.820;16.274;2023-02-01T07:08:47;4.20;99.90
36442;DHT22;64346;50.820;16.274;2023-02-01T07:11:16;4.20;99.90
36442;DHT22;64346;50.820;16.274;2023-02-01T07:13:46;4.20;99.90
36442;DHT22;64346;50.820;16.274;2023-02-01T07:16:18;4.20;99.90
36442;DHT22;64346;50.820;16.274;2023-02-01T07:18:46;4.20;99.90
36442;DHT22;64346;50.820;16.274;2023-02-01T07:21:13;4.20;99.90
36442;DHT22;64346;50.820;16.274;2023-02-01T07:23:41;4.20;99.90
36442;DHT22;64346;50.820;16.274;2023-02-01T07:26:11;4.20;99.90
36442;DHT22;64346;50.820;16.274;2023-02-01T07:28:40;4.30;99.90
36442;DHT22;64346;50.820;16.274;2023-02-01T07:31:18;4.30;99.90
36442;DHT22;64346;50.820;16.274;2023-02-01T07:33:48;4.30;99.90
36442;DHT22;64346;50.820;16.274;2023-02-01T07:36:19;4.30;99.90
36442;DHT22;64346;50.820;16.274;2023-02-01T07:38:46;4.40;99.90
36442;DHT22;64346;50.820;16.274;2023-02-01T07:41:14;4.40;99.90
36442;DHT22;64346;50.820;16.274;2023-02-01T07:43:41;4.50;99.90
36442;DHT22;64346;50.820;16.274;2023-02-01T07:46:11;4.60;99.90
36442;DHT22;64346;50.820;16.274;2023-02-01T07:48:39;4.60;99.90
36442;DHT22;64346;50.820;16.274;2023-02-01T07:51:12;4.70;99.90
36442;DHT22;64346;50.820;16.274;2023-02-01T07:53:43;4.80;99.90
36442;DHT22;64346;50.820;16.274;2023-02-01T07:56:13;4.80;99.90
36442;DHT22;64346;50.820;16.274;2023-02-01T07:58:47;4.80;99.90
36442;DHT22;64346;50.820;16.274;2023-02-01T08:01:20;4.90;99.90
36442;DHT22;64346;50.820;16.274;2023-02-01T08:03:53;4.90;99.90
36442;DHT22;64346;50.820;16.274;2023-02-01T08:06:23;4.90;99.90
36442;DHT22;64346;50.820;16.274;2023-02-01T08:08:52;4.90;99.90
36442;DHT22;64346;50.820;16.274;2023-02-01T08:11:22;5.00;99.90
36442;DHT22;64346;50.820;16.274;2023-02-01T08:13:51;5.00;99.90
36442;DHT22;64346;50.820;16.274;2023-02-01T08:16:19;5.00;99.90
36442;DHT22;64346;50.820;16.274;2023-02-01T08:18:46;4.90;99.90
36442;DHT22;64346;50.820;16.274;2023-02-01T08:21:19;5.00;99.90
36442;DHT22;64346;50.820;16.274;2023-02-01T08:23:46;4.90;99.90
36442;DHT22;64346;50.820;16.274;2023-02-01T08:26:19;4.90;99.90
36442;DHT22;64346;50.820;16.274;2023-02-01T08:28:53;4.90;99.90
36442;DHT22;64346;50.820;16.274;2023-02-01T08:31:22;4.90;99.90
36442;DHT22;64346;50.820;16.274;2023-02-01T08:33:54;4.90;99.90
36442;DHT22;64346;50.820;16.274;2023-02-01T08:36:22;4.90;99.90
36442;DHT22;64346;50.820;16.274;2023-02-01T08:38:53;4.90;99.90
36442;DHT22;64346;50.820;16.274;2023-02-01T08:41:23;4.90;99.90
36442;DHT22;64346;50.820;16.274;2023-02-01T08:43:51;4.90;99.90
36442;DHT22;64346;50.820;16.274;2023-02-01T08:46:18;4.80;99.90
36442;DHT22;64346;50.820;16.274;2023-02-01T08:48:47;4.80;99.90
36442;DHT22;64346;50.820;16.274;2023-02-01T08:51:19;4.70;99.90
36442;DHT22;64346;50.820;16.274;2023-02-01T08:53:47;4.80;99.90
36442;DHT22;64346;50.820;16.274;2023-02-01T08:56:16;4.70;99.90
36442;DHT22;64346;50.820;16.274;2023-02-01T08:58:47;4.60;99.90
36442;DHT22;64346;50.820;16.274;2023-02-01T09:01:15;4.50;99.90
36442;DHT22;64346;50.820;16.274;2023-02-01T09:03:43;4.50;99.90
36442;DHT22;64346;50.820;16.274;2023-02-01T09:06:13;4.50;99.90
36442;DHT22;64346;50.820;16.274;2023-02-01T09:08:41;4.50;99.90
36442;DHT22;64346;50.820;16.274;2023-02-01T09:11:13;4.50;99.90
36442;DHT22;64346;50.820;16.274;2023-02-01T09:13:41;4.60;99.90
36442;DHT22;64346;50.820;16.274;2023-02-01T09:16:09;4.70;99.90
36442;DHT22;64346;50.820;16.274;2023-02-01T09:18:39;4.80;99.90
36442;DHT22;64346;50.820;16.274;2023-02-01T09:21:26;4.80;99.90
36442;DHT22;64346;50.820;16.274;2023-02-01T09:23:53;4.90;99.90
36442;DHT22;64346;50.820;16.274;2023-02-01T09:26:21;5.00;99.90
36442;DHT22;64346;50.820;16.274;2023-02-01T09:28:58;5.40;99.90
36442;DHT22;64346;50.820;16.274;2023-02-01T09:31:25;5.70;99.90
36442;DHT22;64346;50.820;16.274;2023-02-01T09:33:57;6.10;99.90
36442;DHT22;64346;50.820;16.274;2023-02-01T09:36:27;6.30;99.90
36442;DHT22;64346;50.820;16.274;2023-02-01T09:38:57;6.30;99.90
36442;DHT22;64346;50.820;16.274;2023-02-01T09:46:30;5.80;99.90
36442;DHT22;64346;50.820;16.274;2023-02-01T09:49:05;5.70;99.90
36442;DHT22;64346;50.820;16.274;2023-02-01T09:51:44;5.60;99.90
36442;DHT22;64346;50.820;16.274;2023-02-01T09:54:24;5.50;99.90
36442;DHT22;64346;50.820;16.274;2023-02-01T09:56:58;5.50;99.90
36442;DHT22;64346;50.820;16.274;2023-02-01T10:02:16;5.50;99.90
36442;DHT22;64346;50.820;16.274;2023-02-01T10:04:44;5.60;99.90
36442;DHT22;64346;50.820;16.274;2023-02-01T10:07:34;5.60;99.90
36442;DHT22;64346;50.820;16.274;2023-02-01T10:12:57;5.70;99.90
36442;DHT22;64346;50.820;16.274;2023-02-01T10:21:02;5.50;99.90
36442;DHT22;64346;50.820;16.274;2023-02-01T10:23:57;5.50;99.90
36442;DHT22;64346;50.820;16.274;2023-02-01T10:26:55;5.50;99.90
36442;DHT22;64346;50.820;16.274;2023-02-01T10:29:26;5.40;99.90
36442;DHT22;64346;50.820;16.274;2023-02-01T10:31:57;5.40;99.90
36442;DHT22;64346;50.820;16.274;2023-02-01T10:34:27;5.50;99.90
36442;DHT22;64346;50.820;16.274;2023-02-01T10:37:01;5.50;99.90
36442;DHT22;64346;50.820;16.274;2023-02-01T10:39:28;5.50;99.90
36442;DHT22;64346;50.820;16.274;2023-02-01T10:41:56;5.50;99.90
36442;DHT22;64346;50.820;16.274;2023-02-01T10:44:28;5.50;99.90
36442;DHT22;64346;50.820;16.274;2023-02-01T10:46:59;5.50;99.90
36442;DHT22;64346;50.820;16.274;2023-02-01T10:49:36;5.60;99.90
36442;DHT22;64346;50.820;16.274;2023-02-01T10:54:40;6.20;99.90
36442;DHT22;64346;50.820;16.274;2023-02-01T10:57:23;6.30;99.90
36442;DHT22;64346;50.820;16.274;2023-02-01T10:59:50;6.30;99.90
36442;DHT22;64346;50.820;16.274;2023-02-01T11:02:35;6.10;99.90
36442;DHT22;64346;50.820;16.274;2023-02-01T11:05:08;5.90;99.90
36442;DHT22;64346;50.820;16.274;2023-02-01T11:07:36;5.60;99.90
36442;DHT22;64346;50.820;16.274;2023-02-01T11:10:04;5.30;99.90
36442;DHT22;64346;50.820;16.274;2023-02-01T11:12:34;5.20;99.90
36442;DHT22;64346;50.820;16.274;2023-02-01T11:15:13;5.10;99.90
36442;DHT22;64346;50.820;16.274;2023-02-01T11:17:43;5.00;99.90
36442;DHT22;64346;50.820;16.274;2023-02-01T11:20:17;5.00;99.90
36442;DHT22;64346;50.820;16.274;2023-02-01T11:22:55;5.00;99.90
36442;DHT22;64346;50.820;16.274;2023-02-01T11:25:23;4.90;99.90
36442;DHT22;64346;50.820;16.274;2023-02-01T11:27:54;4.80;99.90
36442;DHT22;64346;50.820;16.274;2023-02-01T11:30:41;4.70;99.90
36442;DHT22;64346;50.820;16.274;2023-02-01T11:33:19;4.70;99.90
36442;DHT22;64346;50.820;16.274;2023-02-01T11:35:47;4.60;99.90
36442;DHT22;64346;50.820;16.274;2023-02-01T11:38:30;4.50;99.90
36442;DHT22;64346;50.820;16.274;2023-02-01T11:41:17;4.50;99.90
36442;DHT22;64346;50.820;16.274;2023-02-01T11:44:01;4.40;99.90
36442;DHT22;64346;50.820;16.274;2023-02-01T11:46:32;4.30;99.90
36442;DHT22;64346;50.820;16.274;2023-02-01T11:49:21;4.30;99.90
36442;DHT22;64346;50.820;16.274;2023-02-01T12:00:16;4.40;99.90
36442;DHT22;64346;50.820;16.274;2023-02-01T12:05:31;4.30;99.90
36442;DHT22;64346;50.820;16.274;2023-02-01T12:19:18;4.80;99.90
36442;DHT22;64346;50.820;16.274;2023-02-01T12:29:32;5.30;99.90
36442;DHT22;64346;50.820;16.274;2023-02-01T12:42:23;5.80;99.90
36442;DHT22;64346;50.820;16.274;2023-02-01T12:45:22;6.00;99.90
36442;DHT22;64346;50.820;16.274;2023-02-01T12:50:59;6.20;99.90
36442;DHT22;64346;50.820;16.274;2023-02-01T12:53:45;6.30;99.90
36442;DHT22;64346;50.820;16.274;2023-02-01T12:56:19;6.40;99.90
36442;DHT22;64346;50.820;16.274;2023-02-01T12:58:53;6.60;99.90
36442;DHT22;64346;50.820;16.274;2023-02-01T13:01:39;6.70;99.90
36442;DHT22;64346;50.820;16.274;2023-02-01T13:04:16;6.60;99.90
36442;DHT22;64346;50.820;16.274;2023-02-01T13:09:47;6.40;99.90
36442;DHT22;64346;50.820;16.274;2023-02-01T13:13:08;6.40;99.90
36442;DHT22;64346;50.820;16.274;2023-02-01T13:17:40;6.00;99.90
36442;DHT22;64346;50.820;16.274;2023-02-01T13:25:50;5.60;99.90
36442;DHT22;64346;50.820;16.274;2023-02-01T13:28:25;5.60;99.90
36442;DHT22;64346;50.820;16.274;2023-02-01T13:33:49;5.80;99.90
36442;DHT22;64346;50.820;16.274;2023-02-01T13:44:43;5.80;99.90
36442;DHT22;64346;50.820;16.274;2023-02-01T13:49:52;5.80;99.90
36442;DHT22;64346;50.820;16.274;2023-02-01T13:52:38;5.80;99.90
36442;DHT22;64346;50.820;16.274;2023-02-01T13:58:00;5.50;99.90
36442;DHT22;64346;50.820;16.274;2023-02-01T14:00:35;5.30;99.90
36442;DHT22;64346;50.820;16.274;2023-02-01T14:03:10;5.20;99.90
36442;DHT22;64346;50.820;16.274;2023-02-01T14:13:31;5.10;99.90
36442;DHT22;64346;50.820;16.274;2023-02-01T14:21:31;5.10;99.90
36442;DHT22;64346;50.820;16.274;2023-02-01T14:34:56;4.90;99.90
36442;DHT22;64346;50.820;16.274;2023-02-01T14:37:29;4.90;99.90
36442;DHT22;64346;50.820;16.274;2023-02-01T14:39:58;4.80;99.90
36442;DHT22;64346;50.820;16.274;2023-02-01T14:50:42;4.40;99.90
36442;DHT22;64346;50.820;16.274;2023-02-01T15:00:52;4.40;99.90
36442;DHT22;64346;50.820;16.274;2023-02-01T15:08:55;4.30;99.90
36442;DHT22;64346;50.820;16.274;2023-02-01T15:11:26;4.20;99.90
36442;DHT22;64346;50.820;16.274;2023-02-01T15:13:54;4.20;99.90
36442;DHT22;64346;50.820;16.274;2023-02-01T15:16:25;4.10;99.90
36442;DHT22;64346;50.820;16.274;2023-02-01T15:19:10;4.10;99.90
36442;DHT22;64346;50.820;16.274;2023-02-01T15:21:47;4.10;99.90
36442;DHT22;64346;50.820;16.274;2023-02-01T15:24:28;4.00;99.90
36442;DHT22;64346;50.820;16.274;2023-02-01T15:27:05;3.90;99.90
36442;DHT22;64346;50.820;16.274;2023-02-01T15:29:32;3.90;99.90
36442;DHT22;64346;50.820;16.274;2023-02-01T15:32:00;3.90;99.90
36442;DHT22;64346;50.820;16.274;2023-02-01T15:34:48;3.90;99.90
36442;DHT22;64346;50.820;16.274;2023-02-01T15:37:21;3.90;99.90
36442;DHT22;64346;50.820;16.274;2023-02-01T15:45:21;3.90;99.90
36442;DHT22;64346;50.820;16.274;2023-02-01T15:47:51;3.90;99.90
36442;DHT22;64346;50.820;16.274;2023-02-01T15:50:19;3.90;99.90
36442;DHT22;64346;50.820;16.274;2023-02-01T15:52:51;3.90;99.90
36442;DHT22;64346;50.820;16.274;2023-02-01T15:55:40;4.00;99.90
36442;DHT22;64346;50.820;16.274;2023-02-01T15:58:20;4.00;99.90
36442;DHT22;64346;50.820;16.274;2023-02-01T16:00:59;4.00;99.90
36442;DHT22;64346;50.820;16.274;2023-02-01T16:03:47;4.00;99.90
36442;DHT22;64346;50.820;16.274;2023-02-01T16:11:29;4.10;99.90
36442;DHT22;64346;50.820;16.274;2023-02-01T16:13:58;4.10;99.90
36442;DHT22;64346;50.820;16.274;2023-02-01T16:16:27;4.10;99.90
36442;DHT22;64346;50.820;16.274;2023-02-01T16:18:55;4.20;99.90
36442;DHT22;64346;50.820;16.274;2023-02-01T16:21:22;4.20;99.90
36442;DHT22;64346;50.820;16.274;2023-02-01T16:23:51;4.20;99.90
36442;DHT22;64346;50.820;16.274;2023-02-01T16:26:19;4.20;99.90
36442;DHT22;64346;50.820;16.274;2023-02-01T16:28:47;4.30;99.90
36442;DHT22;64346;50.820;16.274;2023-02-01T16:31:17;4.30;99.90
36442;DHT22;64346;50.820;16.274;2023-02-01T16:33:51;4.30;99.90
36442;DHT22;64346;50.820;16.274;2023-02-01T16:36:21;4.40;99.90
36442;DHT22;64346;50.820;16.274;2023-02-01T16:39:11;4.50;99.90
36442;DHT22;64346;50.820;16.274;2023-02-01T16:41:38;4.50;99.90
36442;DHT22;64346;50.820;16.274;2023-02-01T16:44:08;4.50;99.90
36442;DHT22;64346;50.820;16.274;2023-02-01T16:46:41;4.50;99.90
36442;DHT22;64346;50.820;16.274;2023-02-01T16:49:23;4.40;99.90
36442;DHT22;64346;50.820;16.274;2023-02-01T16:51:52;4.30;99.90
36442;DHT22;64346;50.820;16.274;2023-02-01T16:54:22;4.30;99.90
36442;DHT22;64346;50.820;16.274;2023-02-01T16:56:53;4.20;99.90
36442;DHT22;64346;50.820;16.274;2023-02-01T16:59:23;4.30;99.90
36442;DHT22;64346;50.820;16.274;2023-02-01T17:01:50;4.30;99.90
36442;DHT22;64346;50.820;16.274;2023-02-01T17:04:18;4.30;99.90
36442;DHT22;64346;50.820;16.274;2023-02-01T17:06:45;4.40;99.90
36442;DHT22;64346;50.820;16.274;2023-02-01T17:09:12;4.40;99.90
36442;DHT22;64346;50.820;16.274;2023-02-01T17:11:39;4.40;99.90
36442;DHT22;64346;50.820;16.274;2023-02-01T17:14:22;4.40;99.90
36442;DHT22;64346;50.820;16.274;2023-02-01T17:16:50;4.50;99.90
36442;DHT22;64346;50.820;16.274;2023-02-01T17:19:20;4.50;99.90
36442;DHT22;64346;50.820;16.274;2023-02-01T17:21:50;4.60;99.90
36442;DHT22;64346;50.820;16.274;2023-02-01T17:24:21;4.80;99.90
36442;DHT22;64346;50.820;16.274;2023-02-01T17:26:49;5.00;99.90
36442;DHT22;64346;50.820;16.274;2023-02-01T17:29:17;5.10;99.90
36442;DHT22;64346;50.820;16.274;2023-02-01T17:31:50;5.10;99.90
36442;DHT22;64346;50.820;16.274;2023-02-01T17:34:20;5.00;99.90
36442;DHT22;64346;50.820;16.274;2023-02-01T17:36:48;4.80;99.90
36442;DHT22;64346;50.820;16.274;2023-02-01T17:39:16;4.70;99.90
36442;DHT22;64346;50.820;16.274;2023-02-01T17:41:43;4.50;99.90
36442;DHT22;64346;50.820;16.274;2023-02-01T17:44:11;4.50;99.90
36442;DHT22;64346;50.820;16.274;2023-02-01T17:46:38;4.40;99.90
36442;DHT22;64346;50.820;16.274;2023-02-01T17:49:08;4.40;99.90
36442;DHT22;64346;50.820;16.274;2023-02-01T17:51:35;4.30;99.90
36442;DHT22;64346;50.820;16.274;2023-02-01T17:54:03;4.30;99.90
36442;DHT22;64346;50.820;16.274;2023-02-01T17:56:30;4.30;99.90
36442;DHT22;64346;50.820;16.274;2023-02-01T17:58:58;4.30;99.90
36442;DHT22;64346;50.820;16.274;2023-02-01T18:01:28;4.20;99.90
36442;DHT22;64346;50.820;16.274;2023-02-01T18:03:57;4.20;99.90
36442;DHT22;64346;50.820;16.274;2023-02-01T18:06:25;4.20;99.90
36442;DHT22;64346;50.820;16.274;2023-02-01T18:08:55;4.10;99.90
36442;DHT22;64346;50.820;16.274;2023-02-01T18:11:25;4.00;99.90
36442;DHT22;64346;50.820;16.274;2023-02-01T18:13:55;3.90;99.90
36442;DHT22;64346;50.820;16.274;2023-02-01T18:16:31;3.90;99.90
36442;DHT22;64346;50.820;16.274;2023-02-01T18:18:59;3.80;99.90
36442;DHT22;64346;50.820;16.274;2023-02-01T18:21:36;3.70;99.90
36442;DHT22;64346;50.820;16.274;2023-02-01T18:24:04;3.70;99.90
36442;DHT22;64346;50.820;16.274;2023-02-01T18:26:33;3.70;99.90
36442;DHT22;64346;50.820;16.274;2023-02-01T18:29:01;3.70;99.90
36442;DHT22;64346;50.820;16.274;2023-02-01T18:31:30;3.70;99.90
36442;DHT22;64346;50.820;16.274;2023-02-01T18:34:00;3.60;99.90
36442;DHT22;64346;50.820;16.274;2023-02-01T18:36:27;3.60;99.90
36442;DHT22;64346;50.820;16.274;2023-02-01T18:38:57;3.60;99.90
36442;DHT22;64346;50.820;16.274;2023-02-01T18:41:27;3.60;99.90
36442;DHT22;64346;50.820;16.274;2023-02-01T18:43:54;3.60;99.90
36442;DHT22;64346;50.820;16.274;2023-02-01T18:46:26;3.60;99.90
36442;DHT22;64346;50.820;16.274;2023-02-01T18:48:54;3.60;99.90
36442;DHT22;64346;50.820;16.274;2023-02-01T18:51:23;3.60;99.90
36442;DHT22;64346;50.820;16.274;2023-02-01T18:53:51;3.50;99.90
36442;DHT22;64346;50.820;16.274;2023-02-01T18:56:18;3.60;99.90
36442;DHT22;64346;50.820;16.274;2023-02-01T18:58:46;3.60;99.90